sensor_id;sensor_type;location;lat;lon;timestamp;P1;durP1;ratioP1;P2;durP2;ratioP2
54167;SDS011;40072;50.958;3.592;2022-09-27T00:00:40;8.23;;;2.45;;
54167;SDS011;40072;50.958;3.592;2022-09-27T00:03:07;5.45;;;1.77;;
54167;SDS011;40072;50.958;3.592;2022-09-27T00:05:33;13.85;;;2.65;;
54167;SDS011;40072;50.958;3.592;2022-09-27T00:07:59;11.57;;;2.20;;
54167;SDS011;40072;50.958;3.592;2022-09-27T00:10:24;13.35;;;1.90;;
54167;SDS011;40072;50.958;3.592;2022-09-27T00:12:50;7.22;;;2.33;;
54167;SDS011;40072;50.958;3.592;2022-09-27T00:15:17;9.00;;;1.90;;
54167;SDS011;40072;50.958;3.592;2022-09-27T00:17:42;6.60;;;2.15;;
54167;SDS011;40072;50.958;3.592;2022-09-27T00:20:08;12.60;;;2.35;;
54167;SDS011;40072;50.958;3.592;2022-09-27T00:22:35;9.20;;;2.08;;
54167;SDS011;40072;50.958;3.592;2022-09-27T00:25:01;9.85;;;2.22;;
54167;SDS011;40072;50.958;3.592;2022-09-27T00:27:29;9.55;;;2.92;;
54167;SDS011;40072;50.958;3.592;2022-09-27T00:29:55;9.43;;;1.83;;
54167;SDS011;40072;50.958;3.592;2022-09-27T00:32:21;9.50;;;2.33;;
54167;SDS011;40072;50.958;3.592;2022-09-27T00:34:47;8.27;;;2.10;;
54167;SDS011;40072;50.958;3.592;2022-09-27T00:37:12;9.10;;;2.08;;
54167;SDS011;40072;50.958;3.592;2022-09-27T00:39:38;7.55;;;2.42;;
54167;SDS011;40072;50.958;3.592;2022-09-27T00:42:04;8.18;;;2.13;;
54167;SDS011;40072;50.958;3.592;2022-09-27T00:55:58;10.15;;;2.75;;
54167;SDS011;40072;50.958;3.592;2022-09-27T00:58:28;12.57;;;2.47;;
54167;SDS011;40072;50.958;3.592;2022-09-27T01:00:58;3.38;;;1.90;;
54167;SDS011;40072;50.958;3.592;2022-09-27T01:03:38;8.60;;;2.30;;
54167;SDS011;40072;50.958;3.592;2022-09-27T01:06:15;11.10;;;2.28;;
54167;SDS011;40072;50.958;3.592;2022-09-27T01:08:44;5.55;;;1.80;;
54167;SDS011;40072;50.958;3.592;2022-09-27T01:11:16;8.35;;;2.10;;
54167;SDS011;40072;50.958;3.592;2022-09-27T01:21:59;6.43;;;2.03;;
54167;SDS011;40072;50.958;3.592;2022-09-27T01:33:24;6.03;;;2.03;;
54167;SDS011;40072;50.958;3.592;2022-09-27T01:41:59;6.30;;;1.77;;
54167;SDS011;40072;50.958;3.592;2022-09-27T01:46:56;7.73;;;1.97;;
54167;SDS011;40072;50.958;3.592;2022-09-27T01:49:34;10.55;;;2.28;;
54167;SDS011;40072;50.958;3.592;2022-09-27T01:52:14;6.50;;;2.10;;
54167;SDS011;40072;50.958;3.592;2022-09-27T01:54:46;7.75;;;2.38;;
54167;SDS011;40072;50.958;3.592;2022-09-27T01:57:21;8.30;;;2.28;;
54167;SDS011;40072;50.958;3.592;2022-09-27T01:59:52;9.93;;;3.05;;
54167;SDS011;40072;50.958;3.592;2022-09-27T02:02:31;14.63;;;2.58;;
54167;SDS011;40072;50.958;3.592;2022-09-27T02:05:01;7.18;;;2.40;;
54167;SDS011;40072;50.958;3.592;2022-09-27T02:07:35;7.85;;;2.53;;
54167;SDS011;40072;50.958;3.592;2022-09-27T02:10:15;14.60;;;3.00;;
54167;SDS011;40072;50.958;3.592;2022-09-27T02:12:47;7.93;;;2.60;;
54167;SDS011;40072;50.958;3.592;2022-09-27T02:15:22;12.63;;;2.92;;
54167;SDS011;40072;50.958;3.592;2022-09-27T02:18:06;9.50;;;2.33;;
54167;SDS011;40072;50.958;3.592;2022-09-27T02:20:40;10.45;;;2.67;;
54167;SDS011;40072;50.958;3.592;2022-09-27T02:26:15;10.38;;;2.78;;
54167;SDS011;40072;50.958;3.592;2022-09-27T02:31:32;11.23;;;3.25;;
54167;SDS011;40072;50.958;3.592;2022-09-27T02:34:00;16.83;;;3.35;;
54167;SDS011;40072;50.958;3.592;2022-09-27T02:36:29;8.93;;;3.38;;
54167;SDS011;40072;50.958;3.592;2022-09-27T02:38:55;18.25;;;3.88;;
54167;SDS011;40072;50.958;3.592;2022-09-27T02:41:21;14.43;;;3.70;;
54167;SDS011;40072;50.958;3.592;2022-09-27T02:43:48;8.73;;;3.88;;
54167;SDS011;40072;50.958;3.592;2022-09-27T02:51:40;13.88;;;2.80;;
54167;SDS011;40072;50.958;3.592;2022-09-27T03:05:25;7.82;;;2.65;;
54167;SDS011;40072;50.958;3.592;2022-09-27T03:07:52;6.13;;;3.28;;
54167;SDS011;40072;50.958;3.592;2022-09-27T03:10:23;8.57;;;3.17;;
54167;SDS011;40072;50.958;3.592;2022-09-27T03:12:50;7.60;;;3.85;;
54167;SDS011;40072;50.958;3.592;2022-09-27T03:15:16;12.45;;;4.40;;
54167;SDS011;40072;50.958;3.592;2022-09-27T03:17:42;12.30;;;2.80;;
54167;SDS011;40072;50.958;3.592;2022-09-27T03:20:08;9.35;;;2.53;;
54167;SDS011;40072;50.958;3.592;2022-09-27T03:22:34;3.60;;;2.03;;
54167;SDS011;40072;50.958;3.592;2022-09-27T03:24:59;6.57;;;1.95;;
54167;SDS011;40072;50.958;3.592;2022-09-27T03:27:25;2.55;;;1.75;;
54167;SDS011;40072;50.958;3.592;2022-09-27T03:29:51;4.65;;;1.50;;
54167;SDS011;40072;50.958;3.592;2022-09-27T03:32:17;3.28;;;1.65;;
54167;SDS011;40072;50.958;3.592;2022-09-27T03:34:43;4.20;;;1.50;;
54167;SDS011;40072;50.958;3.592;2022-09-27T03:37:09;7.88;;;2.00;;
54167;SDS011;40072;50.958;3.592;2022-09-27T03:39:34;4.82;;;2.13;;
54167;SDS011;40072;50.958;3.592;2022-09-27T03:42:00;5.82;;;1.88;;
54167;SDS011;40072;50.958;3.592;2022-09-27T03:44:26;7.68;;;2.40;;
54167;SDS011;40072;50.958;3.592;2022-09-27T03:46:51;7.75;;;2.20;;
54167;SDS011;40072;50.958;3.592;2022-09-27T03:49:17;6.80;;;2.15;;
54167;SDS011;40072;50.958;3.592;2022-09-27T03:51:43;3.97;;;2.22;;
54167;SDS011;40072;50.958;3.592;2022-09-27T03:54:09;2.17;;;1.60;;
54167;SDS011;40072;50.958;3.592;2022-09-27T03:56:35;9.52;;;2.80;;
54167;SDS011;40072;50.958;3.592;2022-09-27T03:59:00;7.30;;;2.08;;
54167;SDS011;40072;50.958;3.592;2022-09-27T04:01:26;5.70;;;1.88;;
54167;SDS011;40072;50.958;3.592;2022-09-27T04:03:52;4.90;;;1.80;;
54167;SDS011;40072;50.958;3.592;2022-09-27T04:06:18;6.95;;;1.80;;
54167;SDS011;40072;50.958;3.592;2022-09-27T04:08:44;6.15;;;2.15;;
54167;SDS011;40072;50.958;3.592;2022-09-27T04:11:11;6.90;;;2.15;;
54167;SDS011;40072;50.958;3.592;2022-09-27T04:13:38;5.72;;;2.70;;
54167;SDS011;40072;50.958;3.592;2022-09-27T04:16:03;5.65;;;2.22;;
54167;SDS011;40072;50.958;3.592;2022-09-27T04:18:29;8.25;;;2.40;;
54167;SDS011;40072;50.958;3.592;2022-09-27T04:20:55;12.00;;;2.72;;
54167;SDS011;40072;50.958;3.592;2022-09-27T04:23:20;8.82;;;3.20;;
54167;SDS011;40072;50.958;3.592;2022-09-27T04:25:46;12.32;;;4.50;;
54167;SDS011;40072;50.958;3.592;2022-09-27T04:28:13;5.80;;;2.92;;
54167;SDS011;40072;50.958;3.592;2022-09-27T04:30:40;8.40;;;3.92;;
54167;SDS011;40072;50.958;3.592;2022-09-27T04:33:05;9.05;;;3.00;;
54167;SDS011;40072;50.958;3.592;2022-09-27T04:35:31;3.63;;;1.55;;
54167;SDS011;40072;50.958;3.592;2022-09-27T04:38:15;0.00;;;0.00;;
54167;SDS011;40072;50.958;3.592;2022-09-27T04:40:43;0.00;;;0.00;;
54167;SDS011;40072;50.958;3.592;2022-09-27T04:43:09;0.47;;;0.47;;
54167;SDS011;40072;50.958;3.592;2022-09-27T04:45:34;0.00;;;0.00;;
54167;SDS011;40072;50.958;3.592;2022-09-27T04:48:00;0.03;;;0.03;;
54167;SDS011;40072;50.958;3.592;2022-09-27T04:50:26;0.00;;;0.00;;
54167;SDS011;40072;50.958;3.592;2022-09-27T04:52:52;0.10;;;0.10;;
54167;SDS011;40072;50.958;3.592;2022-09-27T04:55:19;0.00;;;0.00;;
54167;SDS011;40072;50.958;3.592;2022-09-27T04:57:45;0.65;;;0.65;;
54167;SDS011;40072;50.958;3.592;2022-09-27T05:00:12;0.10;;;0.10;;
54167;SDS011;40072;50.958;3.592;2022-09-27T05:02:38;0.10;;;0.10;;
54167;SDS011;40072;50.958;3.592;2022-09-27T05:05:04;0.10;;;0.10;;
54167;SDS011;40072;50.958;3.592;2022-09-27T05:07:32;0.00;;;0.00;;
54167;SDS011;40072;50.958;3.592;2022-09-27T05:09:58;0.00;;;0.00;;
54167;SDS011;40072;50.958;3.592;2022-09-27T05:12:24;0.00;;;0.00;;
54167;SDS011;40072;50.958;3.592;2022-09-27T05:14:51;0.00;;;0.00;;
54167;SDS011;40072;50.958;3.592;2022-09-27T05:17:17;0.08;;;0.08;;
54167;SDS011;40072;50.958;3.592;2022-09-27T05:19:44;0.00;;;0.00;;
54167;SDS011;40072;50.958;3.592;2022-09-27T05:22:10;0.00;;;0.00;;
54167;SDS011;40072;50.958;3.592;2022-09-27T05:24:35;0.00;;;0.00;;
54167;SDS011;40072;50.958;3.592;2022-09-27T05:27:02;0.00;;;0.00;;
54167;SDS011;40072;50.958;3.592;2022-09-27T05:29:32;0.00;;;0.00;;
54167;SDS011;40072;50.958;3.592;2022-09-27T05:31:58;0.00;;;0.00;;
54167;SDS011;40072;50.958;3.592;2022-09-27T05:34:23;1.55;;;1.38;;
54167;SDS011;40072;50.958;3.592;2022-09-27T05:36:49;0.00;;;0.00;;
54167;SDS011;40072;50.958;3.592;2022-09-27T05:39:15;0.00;;;0.00;;
54167;SDS011;40072;50.958;3.592;2022-09-27T05:41:44;0.00;;;0.00;;
54167;SDS011;40072;50.958;3.592;2022-09-27T05:44:13;1.85;;;1.27;;
54167;SDS011;40072;50.958;3.592;2022-09-27T05:46:38;0.00;;;0.00;;
54167;SDS011;40072;50.958;3.592;2022-09-27T05:49:04;0.00;;;0.00;;
54167;SDS011;40072;50.958;3.592;2022-09-27T05:51:30;0.20;;;0.20;;
54167;SDS011;40072;50.958;3.592;2022-09-27T05:53:56;0.10;;;0.10;;
54167;SDS011;40072;50.958;3.592;2022-09-27T05:56:21;0.00;;;0.00;;
54167;SDS011;40072;50.958;3.592;2022-09-27T05:58:48;0.00;;;0.00;;
54167;SDS011;40072;50.958;3.592;2022-09-27T06:01:15;0.00;;;0.00;;
54167;SDS011;40072;50.958;3.592;2022-09-27T06:03:41;0.00;;;0.00;;
54167;SDS011;40072;50.958;3.592;2022-09-27T06:06:07;0.10;;;0.10;;
54167;SDS011;40072;50.958;3.592;2022-09-27T06:08:35;0.00;;;0.00;;
54167;SDS011;40072;50.958;3.592;2022-09-27T06:11:06;0.10;;;0.10;;
54167;SDS011;40072;50.958;3.592;2022-09-27T06:13:33;0.00;;;0.00;;
54167;SDS011;40072;50.958;3.592;2022-09-27T06:16:00;0.00;;;0.00;;
54167;SDS011;40072;50.958;3.592;2022-09-27T06:18:27;0.00;;;0.00;;
54167;SDS011;40072;50.958;3.592;2022-09-27T06:20:53;0.00;;;0.00;;
54167;SDS011;40072;50.958;3.592;2022-09-27T06:23:22;0.10;;;0.10;;
54167;SDS011;40072;50.958;3.592;2022-09-27T06:25:48;0.53;;;0.53;;
54167;SDS011;40072;50.958;3.592;2022-09-27T06:28:15;1.25;;;0.65;;
54167;SDS011;40072;50.958;3.592;2022-09-27T06:30:45;0.00;;;0.00;;
54167;SDS011;40072;50.958;3.592;2022-09-27T06:33:13;0.00;;;0.00;;
54167;SDS011;40072;50.958;3.592;2022-09-27T06:35:41;0.08;;;0.08;;
54167;SDS011;40072;50.958;3.592;2022-09-27T06:38:09;0.00;;;0.00;;
54167;SDS011;40072;50.958;3.592;2022-09-27T06:40:40;2.38;;;1.27;;
54167;SDS011;40072;50.958;3.592;2022-09-27T06:43:09;0.00;;;0.00;;
54167;SDS011;40072;50.958;3.592;2022-09-27T06:45:36;0.00;;;0.00;;
54167;SDS011;40072;50.958;3.592;2022-09-27T06:48:06;0.00;;;0.00;;
54167;SDS011;40072;50.958;3.592;2022-09-27T06:50:33;0.57;;;0.57;;
54167;SDS011;40072;50.958;3.592;2022-09-27T06:53:01;0.00;;;0.00;;
54167;SDS011;40072;50.958;3.592;2022-09-27T06:55:28;0.90;;;0.22;;
54167;SDS011;40072;50.958;3.592;2022-09-27T06:57:54;0.00;;;0.00;;
54167;SDS011;40072;50.958;3.592;2022-09-27T07:00:39;0.00;;;0.00;;
54167;SDS011;40072;50.958;3.592;2022-09-27T07:03:07;0.00;;;0.00;;
54167;SDS011;40072;50.958;3.592;2022-09-27T07:05:38;0.10;;;0.10;;
54167;SDS011;40072;50.958;3.592;2022-09-27T07:08:06;0.00;;;0.00;;
54167;SDS011;40072;50.958;3.592;2022-09-27T07:10:36;0.00;;;0.00;;
54167;SDS011;40072;50.958;3.592;2022-09-27T07:13:04;0.10;;;0.10;;
54167;SDS011;40072;50.958;3.592;2022-09-27T07:15:32;0.10;;;0.10;;
54167;SDS011;40072;50.958;3.592;2022-09-27T07:18:00;0.00;;;0.00;;
54167;SDS011;40072;50.958;3.592;2022-09-27T07:20:27;3.72;;;1.55;;
54167;SDS011;40072;50.958;3.592;2022-09-27T07:22:55;0.13;;;0.13;;
54167;SDS011;40072;50.958;3.592;2022-09-27T07:25:22;0.00;;;0.00;;
54167;SDS011;40072;50.958;3.592;2022-09-27T07:27:48;0.00;;;0.00;;
54167;SDS011;40072;50.958;3.592;2022-09-27T07:30:16;0.20;;;0.20;;
54167;SDS011;40072;50.958;3.592;2022-09-27T07:32:43;0.00;;;0.00;;
54167;SDS011;40072;50.958;3.592;2022-09-27T07:35:10;0.22;;;0.22;;
54167;SDS011;40072;50.958;3.592;2022-09-27T07:37:36;0.25;;;0.25;;
54167;SDS011;40072;50.958;3.592;2022-09-27T07:40:04;0.30;;;0.30;;
54167;SDS011;40072;50.958;3.592;2022-09-27T07:42:31;0.00;;;0.00;;
54167;SDS011;40072;50.958;3.592;2022-09-27T07:44:57;0.00;;;0.00;;
54167;SDS011;40072;50.958;3.592;2022-09-27T07:47:24;0.05;;;0.05;;
54167;SDS011;40072;50.958;3.592;2022-09-27T07:49:52;0.10;;;0.10;;
54167;SDS011;40072;50.958;3.592;2022-09-27T07:52:18;0.00;;;0.00;;
54167;SDS011;40072;50.958;3.592;2022-09-27T07:54:44;0.10;;;0.10;;
54167;SDS011;40072;50.958;3.592;2022-09-27T07:57:10;0.15;;;0.15;;
54167;SDS011;40072;50.958;3.592;2022-09-27T07:59:37;0.00;;;0.00;;
54167;SDS011;40072;50.958;3.592;2022-09-27T08:02:03;0.00;;;0.00;;
54167;SDS011;40072;50.958;3.592;2022-09-27T08:04:29;0.05;;;0.05;;
54167;SDS011;40072;50.958;3.592;2022-09-27T08:06:54;0.00;;;0.00;;
54167;SDS011;40072;50.958;3.592;2022-09-27T08:09:20;0.13;;;0.13;;
54167;SDS011;40072;50.958;3.592;2022-09-27T08:11:46;0.00;;;0.00;;
54167;SDS011;40072;50.958;3.592;2022-09-27T08:14:12;0.00;;;0.00;;
54167;SDS011;40072;50.958;3.592;2022-09-27T08:16:38;1.15;;;1.08;;
54167;SDS011;40072;50.958;3.592;2022-09-27T08:19:05;0.00;;;0.00;;
54167;SDS011;40072;50.958;3.592;2022-09-27T08:21:31;0.00;;;0.00;;
54167;SDS011;40072;50.958;3.592;2022-09-27T08:23:57;0.00;;;0.00;;
54167;SDS011;40072;50.958;3.592;2022-09-27T08:26:23;0.00;;;0.00;;
54167;SDS011;40072;50.958;3.592;2022-09-27T08:28:51;0.00;;;0.00;;
54167;SDS011;40072;50.958;3.592;2022-09-27T08:31:17;0.57;;;0.57;;
54167;SDS011;40072;50.958;3.592;2022-09-27T08:33:42;0.00;;;0.00;;
54167;SDS011;40072;50.958;3.592;2022-09-27T08:36:11;0.00;;;0.00;;
54167;SDS011;40072;50.958;3.592;2022-09-27T08:38:37;1.38;;;1.15;;
54167;SDS011;40072;50.958;3.592;2022-09-27T08:41:15;0.20;;;0.20;;
54167;SDS011;40072;50.958;3.592;2022-09-27T08:43:56;0.00;;;0.00;;
54167;SDS011;40072;50.958;3.592;2022-09-27T08:49:27;0.00;;;0.00;;
54167;SDS011;40072;50.958;3.592;2022-09-27T08:52:16;0.00;;;0.00;;
54167;SDS011;40072;50.958;3.592;2022-09-27T08:54:55;0.00;;;0.00;;
54167;SDS011;40072;50.958;3.592;2022-09-27T08:57:24;0.00;;;0.00;;
54167;SDS011;40072;50.958;3.592;2022-09-27T09:00:04;0.00;;;0.00;;
54167;SDS011;40072;50.958;3.592;2022-09-27T09:02:33;0.00;;;0.00;;
54167;SDS011;40072;50.958;3.592;2022-09-27T09:05:26;2.38;;;1.58;;
54167;SDS011;40072;50.958;3.592;2022-09-27T09:10:42;0.00;;;0.00;;
54167;SDS011;40072;50.958;3.592;2022-09-27T09:13:51;0.00;;;0.00;;
54167;SDS011;40072;50.958;3.592;2022-09-27T09:16:34;0.00;;;0.00;;
54167;SDS011;40072;50.958;3.592;2022-09-27T09:19:46;0.00;;;0.00;;
54167;SDS011;40072;50.958;3.592;2022-09-27T09:37:58;9.25;;;2.30;;
54167;SDS011;40072;50.958;3.592;2022-09-27T09:40:38;5.97;;;1.65;;
54167;SDS011;40072;50.958;3.592;2022-09-27T09:45:46;3.33;;;1.10;;
54167;SDS011;40072;50.958;3.592;2022-09-27T09:48:31;5.95;;;1.52;;
54167;SDS011;40072;50.958;3.592;2022-09-27T09:51:07;8.85;;;1.02;;
54167;SDS011;40072;50.958;3.592;2022-09-27T09:53:58;8.40;;;1.23;;
54167;SDS011;40072;50.958;3.592;2022-09-27T09:56:33;3.55;;;0.98;;
54167;SDS011;40072;50.958;3.592;2022-09-27T09:59:14;4.03;;;1.30;;
54167;SDS011;40072;50.958;3.592;2022-09-27T10:02:24;3.58;;;1.02;;
54167;SDS011;40072;50.958;3.592;2022-09-27T10:04:59;7.30;;;1.13;;
54167;SDS011;40072;50.958;3.592;2022-09-27T10:07:26;2.95;;;1.10;;
54167;SDS011;40072;50.958;3.592;2022-09-27T10:09:53;4.35;;;1.13;;
54167;SDS011;40072;50.958;3.592;2022-09-27T10:12:21;2.72;;;0.88;;
54167;SDS011;40072;50.958;3.592;2022-09-27T10:14:47;6.28;;;1.27;;
54167;SDS011;40072;50.958;3.592;2022-09-27T10:17:16;6.35;;;2.40;;
54167;SDS011;40072;50.958;3.592;2022-09-27T10:19:47;3.33;;;0.90;;
54167;SDS011;40072;50.958;3.592;2022-09-27T10:22:23;6.43;;;1.02;;
54167;SDS011;40072;50.958;3.592;2022-09-27T10:24:57;3.25;;;0.80;;
54167;SDS011;40072;50.958;3.592;2022-09-27T10:27:26;1.83;;;0.63;;
54167;SDS011;40072;50.958;3.592;2022-09-27T10:29:56;10.70;;;1.38;;
54167;SDS011;40072;50.958;3.592;2022-09-27T10:32:32;4.00;;;1.20;;
54167;SDS011;40072;50.958;3.592;2022-09-27T10:35:20;3.33;;;1.00;;
54167;SDS011;40072;50.958;3.592;2022-09-27T10:37:53;7.07;;;1.48;;
54167;SDS011;40072;50.958;3.592;2022-09-27T10:40:36;5.72;;;1.80;;
54167;SDS011;40072;50.958;3.592;2022-09-27T10:43:01;3.53;;;1.38;;
54167;SDS011;40072;50.958;3.592;2022-09-27T10:45:31;4.63;;;1.33;;
54167;SDS011;40072;50.958;3.592;2022-09-27T10:47:58;4.72;;;1.42;;
54167;SDS011;40072;50.958;3.592;2022-09-27T10:50:29;9.68;;;1.98;;
54167;SDS011;40072;50.958;3.592;2022-09-27T10:53:00;10.90;;;2.08;;
54167;SDS011;40072;50.958;3.592;2022-09-27T10:55:35;5.40;;;1.40;;
54167;SDS011;40072;50.958;3.592;2022-09-27T10:58:02;7.07;;;2.05;;
54167;SDS011;40072;50.958;3.592;2022-09-27T11:00:29;7.68;;;1.85;;
54167;SDS011;40072;50.958;3.592;2022-09-27T11:03:34;7.68;;;2.00;;
54167;SDS011;40072;50.958;3.592;2022-09-27T11:05:53;3.92;;;1.38;;
54167;SDS011;40072;50.958;3.592;2022-09-27T11:11:04;8.68;;;1.83;;
54167;SDS011;40072;50.958;3.592;2022-09-27T11:13:31;9.85;;;2.05;;
54167;SDS011;40072;50.958;3.592;2022-09-27T11:16:41;8.95;;;1.83;;
54167;SDS011;40072;50.958;3.592;2022-09-27T11:24:26;9.10;;;2.05;;
54167;SDS011;40072;50.958;3.592;2022-09-27T11:30:18;9.18;;;2.60;;
54167;SDS011;40072;50.958;3.592;2022-09-27T11:32:33;6.22;;;1.38;;
54167;SDS011;40072;50.958;3.592;2022-09-27T11:35:52;10.13;;;2.25;;
54167;SDS011;40072;50.958;3.592;2022-09-27T11:46:34;12.52;;;1.77;;
54167;SDS011;40072;50.958;3.592;2022-09-27T11:49:15;11.85;;;2.47;;
54167;SDS011;40072;50.958;3.592;2022-09-27T12:11:25;6.18;;;1.40;;
54167;SDS011;40072;50.958;3.592;2022-09-27T12:13:56;10.45;;;2.35;;
54167;SDS011;40072;50.958;3.592;2022-09-27T12:16:23;7.00;;;1.60;;
54167;SDS011;40072;50.958;3.592;2022-09-27T12:18:51;7.47;;;1.42;;
54167;SDS011;40072;50.958;3.592;2022-09-27T12:21:18;7.57;;;1.60;;
54167;SDS011;40072;50.958;3.592;2022-09-27T12:23:49;8.90;;;1.70;;
54167;SDS011;40072;50.958;3.592;2022-09-27T12:28:51;17.08;;;2.65;;
54167;SDS011;40072;50.958;3.592;2022-09-27T12:31:35;6.90;;;1.70;;
54167;SDS011;40072;50.958;3.592;2022-09-27T12:34:32;12.70;;;1.98;;
54167;SDS011;40072;50.958;3.592;2022-09-27T12:40:02;12.27;;;1.80;;
54167;SDS011;40072;50.958;3.592;2022-09-27T12:45:26;6.00;;;1.10;;
54167;SDS011;40072;50.958;3.592;2022-09-27T12:48:17;5.95;;;0.95;;
54167;SDS011;40072;50.958;3.592;2022-09-27T12:51:11;2.92;;;0.80;;
54167;SDS011;40072;50.958;3.592;2022-09-27T13:02:10;4.45;;;0.90;;
54167;SDS011;40072;50.958;3.592;2022-09-27T13:12:59;6.18;;;1.08;;
54167;SDS011;40072;50.958;3.592;2022-09-27T13:17:54;6.47;;;1.85;;
54167;SDS011;40072;50.958;3.592;2022-09-27T13:28:30;7.28;;;1.88;;
54167;SDS011;40072;50.958;3.592;2022-09-27T13:30:58;12.55;;;2.47;;
54167;SDS011;40072;50.958;3.592;2022-09-27T13:47:02;5.95;;;1.40;;
54167;SDS011;40072;50.958;3.592;2022-09-27T13:54:50;1.80;;;0.80;;
54167;SDS011;40072;50.958;3.592;2022-09-27T14:00:25;2.28;;;1.10;;
54167;SDS011;40072;50.958;3.592;2022-09-27T14:02:58;1.42;;;0.70;;
54167;SDS011;40072;50.958;3.592;2022-09-27T14:05:52;3.10;;;0.90;;
54167;SDS011;40072;50.958;3.592;2022-09-27T14:08:36;4.78;;;1.35;;
54167;SDS011;40072;50.958;3.592;2022-09-27T14:11:21;4.93;;;1.52;;
54167;SDS011;40072;50.958;3.592;2022-09-27T14:13:51;6.53;;;1.58;;
54167;SDS011;40072;50.958;3.592;2022-09-27T14:16:17;7.22;;;2.20;;
54167;SDS011;40072;50.958;3.592;2022-09-27T14:18:46;8.00;;;1.85;;
54167;SDS011;40072;50.958;3.592;2022-09-27T14:29:57;3.63;;;1.20;;
54167;SDS011;40072;50.958;3.592;2022-09-27T14:32:29;5.82;;;1.25;;
54167;SDS011;40072;50.958;3.592;2022-09-27T14:35:02;6.13;;;1.30;;
54167;SDS011;40072;50.958;3.592;2022-09-27T14:37:30;4.72;;;1.20;;
54167;SDS011;40072;50.958;3.592;2022-09-27T14:40:01;4.05;;;1.10;;
54167;SDS011;40072;50.958;3.592;2022-09-27T14:42:35;3.95;;;1.35;;
54167;SDS011;40072;50.958;3.592;2022-09-27T14:45:44;4.32;;;1.35;;
54167;SDS011;40072;50.958;3.592;2022-09-27T14:47:51;4.80;;;1.55;;
54167;SDS011;40072;50.958;3.592;2022-09-27T14:52:48;5.30;;;1.65;;
54167;SDS011;40072;50.958;3.592;2022-09-27T14:55:19;4.38;;;1.38;;
54167;SDS011;40072;50.958;3.592;2022-09-27T14:57:50;3.25;;;1.30;;
54167;SDS011;40072;50.958;3.592;2022-09-27T15:00:25;4.95;;;1.20;;
54167;SDS011;40072;50.958;3.592;2022-09-27T15:02:56;3.25;;;1.20;;
54167;SDS011;40072;50.958;3.592;2022-09-27T15:05:33;4.78;;;1.67;;
54167;SDS011;40072;50.958;3.592;2022-09-27T15:08:03;3.15;;;1.42;;
54167;SDS011;40072;50.958;3.592;2022-09-27T15:10:31;4.88;;;1.63;;
54167;SDS011;40072;50.958;3.592;2022-09-27T15:12:59;4.85;;;1.35;;
54167;SDS011;40072;50.958;3.592;2022-09-27T15:15:28;6.35;;;1.90;;
54167;SDS011;40072;50.958;3.592;2022-09-27T15:17:56;5.78;;;1.90;;
54167;SDS011;40072;50.958;3.592;2022-09-27T15:20:30;7.03;;;2.08;;
54167;SDS011;40072;50.958;3.592;2022-09-27T15:22:58;8.60;;;2.53;;
54167;SDS011;40072;50.958;3.592;2022-09-27T15:25:36;7.95;;;2.08;;
54167;SDS011;40072;50.958;3.592;2022-09-27T15:28:13;5.40;;;1.60;;
54167;SDS011;40072;50.958;3.592;2022-09-27T15:30:47;6.65;;;2.25;;
54167;SDS011;40072;50.958;3.592;2022-09-27T15:33:24;10.10;;;3.58;;
54167;SDS011;40072;50.958;3.592;2022-09-27T15:35:53;9.03;;;2.40;;
54167;SDS011;40072;50.958;3.592;2022-09-27T15:41:00;9.32;;;2.50;;
54167;SDS011;40072;50.958;3.592;2022-09-27T15:43:41;10.30;;;2.57;;
54167;SDS011;40072;50.958;3.592;2022-09-27T15:52:14;9.93;;;2.65;;
54167;SDS011;40072;50.958;3.592;2022-09-27T15:54:52;14.10;;;3.05;;
54167;SDS011;40072;50.958;3.592;2022-09-27T15:57:18;13.63;;;3.00;;
54167;SDS011;40072;50.958;3.592;2022-09-27T15:59:44;17.42;;;4.70;;
54167;SDS011;40072;50.958;3.592;2022-09-27T16:02:13;18.75;;;4.10;;
54167;SDS011;40072;50.958;3.592;2022-09-27T16:04:41;12.60;;;3.03;;
54167;SDS011;40072;50.958;3.592;2022-09-27T16:07:06;10.23;;;2.75;;
54167;SDS011;40072;50.958;3.592;2022-09-27T16:09:33;8.48;;;2.35;;
54167;SDS011;40072;50.958;3.592;2022-09-27T16:11:59;10.82;;;2.38;;
54167;SDS011;40072;50.958;3.592;2022-09-27T16:14:25;16.08;;;2.92;;
54167;SDS011;40072;50.958;3.592;2022-09-27T16:16:51;12.30;;;2.70;;
54167;SDS011;40072;50.958;3.592;2022-09-27T16:19:19;18.05;;;3.20;;
54167;SDS011;40072;50.958;3.592;2022-09-27T16:21:45;21.92;;;3.15;;
54167;SDS011;40072;50.958;3.592;2022-09-27T16:24:12;13.10;;;2.90;;
54167;SDS011;40072;50.958;3.592;2022-09-27T16:26:38;17.30;;;3.08;;
54167;SDS011;40072;50.958;3.592;2022-09-27T16:29:08;13.52;;;2.92;;
54167;SDS011;40072;50.958;3.592;2022-09-27T16:31:36;17.73;;;3.42;;
54167;SDS011;40072;50.958;3.592;2022-09-27T16:34:02;13.98;;;3.15;;
54167;SDS011;40072;50.958;3.592;2022-09-27T16:36:28;12.57;;;3.22;;
54167;SDS011;40072;50.958;3.592;2022-09-27T16:38:53;16.55;;;3.40;;
54167;SDS011;40072;50.958;3.592;2022-09-27T16:41:20;14.90;;;3.05;;
54167;SDS011;40072;50.958;3.592;2022-09-27T16:43:46;14.27;;;3.30;;
54167;SDS011;40072;50.958;3.592;2022-09-27T16:46:12;15.50;;;3.28;;
54167;SDS011;40072;50.958;3.592;2022-09-27T16:48:42;17.88;;;3.40;;
54167;SDS011;40072;50.958;3.592;2022-09-27T16:51:16;19.65;;;3.70;;
54167;SDS011;40072;50.958;3.592;2022-09-27T16:54:01;17.77;;;3.40;;
54167;SDS011;40072;50.958;3.592;2022-09-27T16:56:29;16.25;;;2.97;;
54167;SDS011;40072;50.958;3.592;2022-09-27T16:58:56;16.85;;;2.67;;
54167;SDS011;40072;50.958;3.592;2022-09-27T17:01:22;20.38;;;3.10;;
54167;SDS011;40072;50.958;3.592;2022-09-27T17:03:49;21.33;;;3.45;;
54167;SDS011;40072;50.958;3.592;2022-09-27T17:06:16;16.58;;;3.00;;
54167;SDS011;40072;50.958;3.592;2022-09-27T17:08:42;17.52;;;3.30;;
54167;SDS011;40072;50.958;3.592;2022-09-27T17:11:10;19.48;;;3.72;;
54167;SDS011;40072;50.958;3.592;2022-09-27T17:13:40;15.23;;;3.97;;
54167;SDS011;40072;50.958;3.592;2022-09-27T17:16:06;20.02;;;4.28;;
54167;SDS011;40072;50.958;3.592;2022-09-27T17:18:32;11.65;;;2.80;;
54167;SDS011;40072;50.958;3.592;2022-09-27T17:20:59;15.65;;;2.97;;
54167;SDS011;40072;50.958;3.592;2022-09-27T17:23:31;11.13;;;2.22;;
54167;SDS011;40072;50.958;3.592;2022-09-27T17:26:05;6.18;;;1.95;;
54167;SDS011;40072;50.958;3.592;2022-09-27T17:28:41;10.07;;;6.22;;
54167;SDS011;40072;50.958;3.592;2022-09-27T17:31:08;6.10;;;3.10;;
54167;SDS011;40072;50.958;3.592;2022-09-27T17:33:38;5.85;;;2.25;;
54167;SDS011;40072;50.958;3.592;2022-09-27T17:36:18;5.45;;;1.73;;
54167;SDS011;40072;50.958;3.592;2022-09-27T17:38:46;7.60;;;1.90;;
54167;SDS011;40072;50.958;3.592;2022-09-27T17:41:14;5.50;;;1.90;;
54167;SDS011;40072;50.958;3.592;2022-09-27T17:43:42;5.10;;;1.90;;
54167;SDS011;40072;50.958;3.592;2022-09-27T17:46:16;8.93;;;1.60;;
54167;SDS011;40072;50.958;3.592;2022-09-27T17:48:43;10.13;;;2.55;;
54167;SDS011;40072;50.958;3.592;2022-09-27T17:51:28;8.30;;;2.97;;
54167;SDS011;40072;50.958;3.592;2022-09-27T17:53:54;8.05;;;3.05;;
54167;SDS011;40072;50.958;3.592;2022-09-27T17:56:19;7.60;;;4.05;;
54167;SDS011;40072;50.958;3.592;2022-09-27T17:58:47;9.02;;;3.50;;
54167;SDS011;40072;50.958;3.592;2022-09-27T18:01:15;8.43;;;3.65;;
54167;SDS011;40072;50.958;3.592;2022-09-27T18:03:42;9.43;;;3.55;;
54167;SDS011;40072;50.958;3.592;2022-09-27T18:06:09;19.30;;;6.60;;
54167;SDS011;40072;50.958;3.592;2022-09-27T18:08:36;13.95;;;5.63;;
54167;SDS011;40072;50.958;3.592;2022-09-27T18:11:06;17.65;;;5.07;;
54167;SDS011;40072;50.958;3.592;2022-09-27T18:13:34;8.77;;;3.20;;
54167;SDS011;40072;50.958;3.592;2022-09-27T18:16:06;10.40;;;3.60;;
54167;SDS011;40072;50.958;3.592;2022-09-27T18:18:34;8.13;;;3.75;;
54167;SDS011;40072;50.958;3.592;2022-09-27T18:21:03;13.95;;;5.43;;
54167;SDS011;40072;50.958;3.592;2022-09-27T18:23:39;11.15;;;6.57;;